Time;durP1;ratioP1;P1;durP2;ratioP2;P2;SDS_P1;SDS_P2;PMS_P1;PMS_P2;Temp;Humidity;BMP_temperature;BMP_pressure;BME280_temperature;BME280_humidity;BME280_pressure;Samples;Min_cycle;Max_cycle;Signal;HPM_P1;HPM_P2
2022/07/31 00:00:36;;;;;;;1.67;1.60;;;29.00;40.00;;;;;;5116230;28;20534;-79
2022/07/31 00:03:05;;;;;;;1.47;1.47;;;29.00;40.00;;;;;;5115810;28;20471;-78
2022/07/31 00:05:33;;;;;;;1.80;1.70;;;29.00;40.00;;;;;;5114870;28;20491;-79
2022/07/31 00:08:08;;;;;;;1.57;1.47;;;29.00;39.90;;;;;;5119201;28;20488;-78
2022/07/31 00:10:36;;;;;;;1.50;1.40;;;29.00;40.00;;;;;;5118941;28;20538;-79
2022/07/31 00:13:04;;;;;;;2.80;1.50;;;28.90;39.90;;;;;;5119964;28;20475;-79
2022/07/31 00:15:32;;;;;;;1.80;1.70;;;28.90;40.00;;;;;;5118799;28;20459;-79
2022/07/31 00:18:00;;;;;;;1.80;1.70;;;28.90;40.10;;;;;;5119244;28;20501;-79
2022/07/31 00:20:29;;;;;;;1.60;1.57;;;28.90;40.10;;;;;;5119387;28;20454;-79
2022/07/31 00:22:57;;;;;;;1.60;1.60;;;28.90;40.10;;;;;;5119352;28;20527;-79
2022/07/31 00:25:25;;;;;;;1.60;1.60;;;28.90;40.10;;;;;;5118537;28;20546;-80
2022/07/31 00:27:53;;;;;;;1.83;1.73;;;28.80;40.10;;;;;;5119406;28;20450;-80
2022/07/31 00:30:21;;;;;;;1.70;1.60;;;28.80;40.00;;;;;;5119276;28;20454;-80
2022/07/31 00:32:49;;;;;;;1.50;1.50;;;28.80;40.10;;;;;;5119501;28;20478;-80
2022/07/31 00:35:19;;;;;;;1.53;1.50;;;28.90;40.10;;;;;;5118235;28;20455;-79
2022/07/31 00:37:48;;;;;;;1.60;1.50;;;28.80;40.10;;;;;;5119397;28;20432;-79
2022/07/31 00:40:16;;;;;;;1.80;1.70;;;28.80;40.00;;;;;;5119647;28;20436;-79
2022/07/31 00:42:45;;;;;;;1.50;1.50;;;28.80;40.10;;;;;;5119899;28;20434;-78
2022/07/31 00:45:12;;;;;;;1.53;1.43;;;28.80;40.10;;;;;;5118002;28;20496;-79
2022/07/31 00:47:41;;;;;;;1.73;1.63;;;28.70;40.00;;;;;;5119929;28;20480;-78
2022/07/31 00:50:09;;;;;;;1.60;1.50;;;28.80;40.00;;;;;;5122913;28;20451;-78
2022/07/31 00:52:37;;;;;;;1.50;1.50;;;28.80;40.10;;;;;;5119619;28;20436;-79
2022/07/31 00:55:08;;;;;;;1.57;1.47;;;28.80;40.10;;;;;;5119248;28;20470;-79
2022/07/31 00:57:35;;;;;;;1.57;1.57;;;28.70;40.00;;;;;;5119415;28;20514;-80
2022/07/31 01:00:04;;;;;;;1.60;1.50;;;28.70;40.00;;;;;;5119394;28;20482;-79
2022/07/31 01:02:32;;;;;;;1.40;1.40;;;28.70;40.10;;;;;;5119711;28;20443;-79
2022/07/31 01:05:00;;;;;;;1.40;1.40;;;28.70;40.00;;;;;;5118910;28;20474;-79
2022/07/31 01:07:28;;;;;;;1.40;1.40;;;28.70;40.10;;;;;;5119075;28;20543;-78
2022/07/31 01:09:56;;;;;;;1.40;1.40;;;28.70;40.00;;;;;;5117901;27;20854;-79
2022/07/31 01:12:27;;;;;;;1.50;1.50;;;28.70;40.10;;;;;;5118923;28;20432;-79
2022/07/31 01:15:06;;;;;;;1.67;1.60;;;28.70;40.10;;;;;;5118884;28;20435;-79
2022/07/31 01:17:34;;;;;;;1.67;1.67;;;28.70;40.00;;;;;;5119547;28;20528;-79
2022/07/31 01:20:02;;;;;;;1.70;1.60;;;28.70;40.00;;;;;;5119179;28;20523;-79
2022/07/31 01:22:53;;;;;;;1.60;1.60;;;28.70;40.20;;;;;;5120722;28;20450;-80
2022/07/31 01:25:29;;;;;;;1.70;1.60;;;28.70;40.00;;;;;;5122234;28;20460;-79
2022/07/31 01:28:02;;;;;;;1.70;1.60;;;28.70;40.10;;;;;;5122432;28;20563;-79
2022/07/31 01:30:34;;;;;;;1.90;1.80;;;28.70;40.10;;;;;;5120158;28;20474;-80
2022/07/31 01:33:08;;;;;;;1.93;1.83;;;28.70;40.10;;;;;;5119345;28;20418;-80
2022/07/31 01:35:42;;;;;;;1.40;1.40;;;28.60;40.10;;;;;;5118685;27;20447;-79
2022/07/31 01:38:11;;;;;;;1.80;1.70;;;28.60;40.10;;;;;;5118403;27;20495;-80
2022/07/31 01:40:42;;;;;;;1.60;1.53;;;28.60;40.20;;;;;;5118547;28;20539;-79
2022/07/31 01:43:12;;;;;;;2.00;1.80;;;28.60;40.10;;;;;;5119278;28;20482;-79
2022/07/31 01:45:43;;;;;;;1.53;1.53;;;28.60;40.10;;;;;;5118695;27;20419;-80
2022/07/31 01:48:14;;;;;;;1.60;1.60;;;28.60;40.10;;;;;;5119204;28;20559;-80
2022/07/31 01:50:42;;;;;;;1.70;1.67;;;28.60;40.20;;;;;;5119227;28;20440;-80
2022/07/31 01:53:12;;;;;;;1.50;1.50;;;28.60;40.20;;;;;;5118883;28;20436;-80
2022/07/31 01:55:40;;;;;;;1.60;1.50;;;28.50;40.10;;;;;;5118645;28;20467;-80
2022/07/31 01:58:28;;;;;;;1.60;1.50;;;28.50;40.20;;;;;;5118941;28;20434;-79
2022/07/31 02:00:58;;;;;;;1.47;1.47;;;28.50;40.20;;;;;;5118739;28;20504;-79
2022/07/31 02:03:27;;;;;;;1.40;1.33;;;28.50;40.20;;;;;;5117851;28;20439;-79
2022/07/31 02:06:12;;;;;;;1.73;1.63;;;28.50;40.20;;;;;;5118111;28;20527;-79
2022/07/31 02:08:40;;;;;;;1.90;1.80;;;28.50;40.20;;;;;;5118125;28;20440;-79
2022/07/31 02:11:08;;;;;;;1.57;1.47;;;28.50;40.20;;;;;;5117157;28;20475;-79
2022/07/31 02:13:36;;;;;;;1.57;1.57;;;28.40;40.20;;;;;;5118219;28;20463;-79
2022/07/31 02:16:06;;;;;;;1.60;1.50;;;28.40;40.10;;;;;;5117596;28;20415;-78
2022/07/31 02:18:34;;;;;;;1.20;1.20;;;28.40;40.10;;;;;;5118343;28;20464;-79
2022/07/31 02:21:02;;;;;;;1.43;1.43;;;28.40;40.30;;;;;;5117827;28;20519;-79
2022/07/31 02:23:30;;;;;;;1.60;1.60;;;28.40;40.30;;;;;;5117572;28;20468;-79
2022/07/31 02:25:58;;;;;;;1.80;1.70;;;28.40;40.20;;;;;;5116915;28;20541;-79
2022/07/31 02:28:26;;;;;;;1.90;1.80;;;28.30;40.20;;;;;;5117231;28;20450;-80
2022/07/31 02:30:54;;;;;;;1.40;1.40;;;28.30;40.30;;;;;;5116186;28;20434;-79
2022/07/31 02:33:26;;;;;;;1.40;1.40;;;28.30;40.30;;;;;;5117335;28;20540;-79
2022/07/31 02:35:55;;;;;;;1.30;1.30;;;28.30;40.20;;;;;;5117006;28;20459;-79
2022/07/31 02:38:25;;;;;;;1.60;1.50;;;28.30;40.20;;;;;;5117665;28;20467;-79
2022/07/31 02:40:54;;;;;;;1.63;1.53;;;28.30;40.30;;;;;;5118722;28;20463;-79
2022/07/31 02:43:22;;;;;;;1.60;1.50;;;28.30;40.30;;;;;;5116824;28;20451;-79
2022/07/31 02:45:50;;;;;;;1.63;1.63;;;28.20;40.20;;;;;;5116433;28;20453;-78
2022/07/31 02:48:17;;;;;;;1.43;1.43;;;28.20;40.30;;;;;;5116982;28;20470;-79
2022/07/31 02:50:47;;;;;;;1.47;1.47;;;28.20;40.30;;;;;;5118208;28;20503;-79
2022/07/31 02:53:14;;;;;;;1.57;1.47;;;28.20;40.40;;;;;;5116369;28;20436;-80
2022/07/31 02:55:43;;;;;;;1.93;1.67;;;28.20;40.30;;;;;;5116152;28;20957;-78
2022/07/31 02:58:11;;;;;;;1.20;1.20;;;28.20;40.40;;;;;;5117916;28;20431;-78
2022/07/31 03:00:39;;;;;;;1.53;1.40;;;28.20;40.40;;;;;;5116434;28;20503;-80
2022/07/31 03:03:07;;;;;;;1.50;1.50;;;28.20;40.30;;;;;;5116550;28;20444;-78
2022/07/31 03:05:35;;;;;;;1.77;1.67;;;28.20;40.30;;;;;;5115168;28;20448;-79
2022/07/31 03:08:05;;;;;;;1.40;1.40;;;28.10;40.40;;;;;;5115852;28;20532;-79
2022/07/31 03:10:33;;;;;;;1.57;1.47;;;28.10;40.40;;;;;;5116522;28;20490;-79
2022/07/31 03:13:00;;;;;;;1.60;1.60;;;28.10;40.40;;;;;;5117719;28;20520;-79
2022/07/31 03:15:28;;;;;;;1.77;1.67;;;28.10;40.40;;;;;;5117277;28;20487;-79
2022/07/31 03:17:56;;;;;;;1.40;1.40;;;28.10;40.40;;;;;;5116382;28;20518;-80
2022/07/31 03:20:25;;;;;;;1.40;1.40;;;28.10;40.40;;;;;;5117329;28;20443;-80
2022/07/31 03:22:53;;;;;;;1.50;1.50;;;28.10;40.40;;;;;;5116579;28;20505;-79
2022/07/31 03:25:22;;;;;;;1.60;1.50;;;28.10;40.40;;;;;;5115408;28;20487;-79
2022/07/31 03:27:50;;;;;;;1.53;1.43;;;28.10;40.50;;;;;;5117967;28;20495;-79
2022/07/31 03:30:23;;;;;;;1.20;1.20;;;28.10;40.40;;;;;;5116560;28;20477;-78
2022/07/31 03:32:51;;;;;;;1.83;1.83;;;28.00;40.40;;;;;;5116964;28;20410;-79
2022/07/31 03:35:19;;;;;;;1.67;1.27;;;28.10;40.40;;;;;;5116429;28;20551;-79
2022/07/31 03:37:47;;;;;;;1.50;1.40;;;28.00;40.40;;;;;;5116723;28;20430;-79
2022/07/31 03:40:15;;;;;;;1.30;1.30;;;28.00;40.40;;;;;;5116466;28;20439;-79
2022/07/31 03:42:45;;;;;;;1.63;1.53;;;28.00;40.40;;;;;;5118828;28;20531;-80
2022/07/31 03:45:13;;;;;;;1.70;1.60;;;28.00;40.40;;;;;;5119893;27;20484;-80
2022/07/31 03:47:41;;;;;;;1.77;1.67;;;28.00;40.50;;;;;;5121439;28;20550;-81
2022/07/31 03:50:09;;;;;;;1.50;1.50;;;28.00;40.40;;;;;;5120546;27;20539;-81
2022/07/31 03:52:37;;;;;;;1.40;1.40;;;28.00;40.40;;;;;;5120958;28;20471;-81
2022/07/31 03:55:06;;;;;;;1.77;1.67;;;28.00;40.40;;;;;;5120194;28;20487;-81
2022/07/31 03:57:34;;;;;;;1.43;1.43;;;28.00;40.50;;;;;;5120704;28;20459;-80
2022/07/31 04:00:04;;;;;;;1.50;1.40;;;28.00;40.60;;;;;;5120823;28;20461;-80
2022/07/31 04:02:43;;;;;;;1.53;1.43;;;27.90;40.50;;;;;;5120904;28;20430;-80
2022/07/31 04:05:11;;;;;;;1.37;1.30;;;27.90;40.50;;;;;;5122028;28;20452;-79
2022/07/31 04:07:39;;;;;;;1.50;1.50;;;27.90;40.40;;;;;;5124015;28;20555;-80
2022/07/31 04:10:08;;;;;;;1.37;1.30;;;27.90;40.50;;;;;;5121103;28;20442;-78
2022/07/31 04:12:35;;;;;;;1.67;1.57;;;27.90;40.50;;;;;;5120077;28;20451;-78
2022/07/31 04:15:06;;;;;;;1.37;1.37;;;27.90;40.50;;;;;;5118232;28;20480;-78
2022/07/31 04:17:36;;;;;;;1.50;1.50;;;27.90;40.60;;;;;;5118625;28;20443;-78
2022/07/31 04:20:04;;;;;;;1.50;1.50;;;27.90;40.60;;;;;;5118394;28;20418;-78
2022/07/31 04:22:32;;;;;;;1.23;1.23;;;27.90;40.60;;;;;;5118037;28;20402;-78
2022/07/31 04:25:00;;;;;;;1.50;1.40;;;27.90;40.70;;;;;;5120583;28;20452;-77
2022/07/31 04:27:28;;;;;;;1.60;1.50;;;27.90;41.40;;;;;;5117553;28;20525;-78
2022/07/31 04:29:56;;;;;;;1.97;1.67;;;27.80;40.50;;;;;;5117822;28;20448;-79
2022/07/31 04:32:26;;;;;;;1.47;1.37;;;27.80;40.60;;;;;;5117403;28;20897;-79
2022/07/31 04:34:54;;;;;;;1.33;1.33;;;27.80;40.60;;;;;;5117058;28;20447;-77
2022/07/31 04:37:22;;;;;;;1.20;1.20;;;27.90;40.70;;;;;;5117508;28;20454;-79
2022/07/31 04:39:50;;;;;;;1.80;1.70;;;27.90;40.70;;;;;;5117554;27;20489;-79
2022/07/31 04:42:18;;;;;;;1.30;1.30;;;27.80;40.60;;;;;;5116872;28;20448;-79
2022/07/31 04:44:46;;;;;;;1.70;1.60;;;27.80;40.60;;;;;;5116596;28;20817;-79
2022/07/31 04:47:14;;;;;;;1.70;1.70;;;27.80;40.60;;;;;;5115936;28;20450;-79
2022/07/31 04:49:43;;;;;;;1.80;1.70;;;27.80;40.70;;;;;;5115824;28;20474;-78
2022/07/31 04:52:11;;;;;;;1.97;1.67;;;27.90;40.70;;;;;;5115513;28;20956;-79
2022/07/31 04:54:39;;;;;;;1.40;1.40;;;27.90;40.70;;;;;;5116161;28;20558;-79
2022/07/31 04:57:07;;;;;;;1.50;1.50;;;27.90;40.60;;;;;;5115236;28;20437;-78
2022/07/31 04:59:35;;;;;;;1.40;1.40;;;27.90;40.60;;;;;;5116009;28;20440;-79
2022/07/31 05:02:23;;;;;;;1.97;1.87;;;27.90;40.50;;;;;;5115312;28;20437;-78
2022/07/31 05:04:54;;;;;;;2.07;1.97;;;28.00;40.40;;;;;;5116111;28;20435;-77
2022/07/31 05:07:23;;;;;;;1.67;1.67;;;28.00;40.50;;;;;;5118509;28;20478;-79
2022/07/31 05:09:55;;;;;;;1.50;1.50;;;28.00;40.40;;;;;;5118148;28;20446;-79
2022/07/31 05:12:23;;;;;;;1.83;1.73;;;28.00;40.40;;;;;;5117223;28;20930;-79
2022/07/31 05:14:52;;;;;;;1.70;1.70;;;28.00;40.30;;;;;;5117980;28;20474;-79
2022/07/31 05:17:20;;;;;;;1.50;1.50;;;28.00;40.20;;;;;;5117715;28;20419;-79
2022/07/31 05:19:48;;;;;;;1.80;1.70;;;28.00;40.20;;;;;;5117986;28;20948;-80
2022/07/31 05:22:17;;;;;;;1.90;1.80;;;28.00;40.40;;;;;;5117867;28;20508;-79
2022/07/31 05:24:45;;;;;;;1.53;1.43;;;28.10;40.30;;;;;;5119346;28;20467;-80
2022/07/31 05:27:13;;;;;;;1.90;1.80;;;28.00;40.30;;;;;;5118809;28;20511;-80
2022/07/31 05:29:41;;;;;;;1.77;1.67;;;28.10;40.20;;;;;;5119007;28;20513;-80
2022/07/31 05:32:09;;;;;;;1.70;1.60;;;28.10;40.40;;;;;;5118971;28;20521;-80
2022/07/31 05:34:38;;;;;;;1.90;1.80;;;28.10;40.10;;;;;;5118953;28;20468;-80
2022/07/31 05:37:06;;;;;;;1.50;1.50;;;28.10;40.10;;;;;;5118367;28;20448;-80
2022/07/31 05:39:35;;;;;;;1.50;1.50;;;28.10;40.30;;;;;;5120008;28;20471;-80
2022/07/31 05:42:03;;;;;;;1.40;1.40;;;28.10;40.20;;;;;;5118810;28;20432;-80
2022/07/31 05:44:32;;;;;;;1.77;1.53;;;28.10;40.20;;;;;;5119054;28;20460;-80
2022/07/31 05:47:00;;;;;;;1.67;1.57;;;28.20;40.00;;;;;;5118264;28;20447;-80
2022/07/31 05:49:28;;;;;;;1.67;1.57;;;28.20;40.10;;;;;;5118668;27;20446;-80
2022/07/31 05:51:56;;;;;;;1.50;1.50;;;28.20;40.00;;;;;;5118173;27;20520;-79
2022/07/31 05:54:24;;;;;;;1.50;1.50;;;28.20;40.10;;;;;;5118667;28;20534;-80
2022/07/31 05:56:53;;;;;;;1.40;1.40;;;28.30;40.00;;;;;;5117263;28;20439;-80
2022/07/31 05:59:22;;;;;;;1.53;1.53;;;28.30;40.00;;;;;;5118477;28;20415;-80
2022/07/31 06:01:50;;;;;;;1.60;1.50;;;28.30;40.00;;;;;;5117819;28;20478;-80
2022/07/31 06:04:18;;;;;;;1.40;1.30;;;28.30;40.60;;;;;;5117263;28;20441;-80
2022/07/31 06:06:46;;;;;;;1.43;1.43;;;28.40;39.90;;;;;;5117272;28;20447;-80
2022/07/31 06:09:14;;;;;;;1.47;1.37;;;28.30;39.80;;;;;;5118321;28;20511;-80
2022/07/31 06:11:42;;;;;;;1.37;1.37;;;28.30;39.80;;;;;;5117946;28;20502;-80
2022/07/31 06:14:11;;;;;;;1.30;1.30;;;28.40;39.80;;;;;;5117952;28;20463;-80
2022/07/31 06:16:39;;;;;;;1.50;1.50;;;28.30;39.80;;;;;;5117346;28;20413;-80
2022/07/31 06:19:07;;;;;;;1.70;1.60;;;28.40;39.70;;;;;;5118072;28;20467;-79
2022/07/31 06:21:35;;;;;;;1.60;1.60;;;28.40;39.70;;;;;;5118707;28;20463;-79
2022/07/31 06:24:02;;;;;;;1.80;1.80;;;28.40;39.70;;;;;;5117937;28;20434;-80
2022/07/31 06:26:30;;;;;;;2.33;2.17;;;28.50;39.70;;;;;;5117472;28;20505;-80
2022/07/31 06:28:58;;;;;;;1.87;1.70;;;28.50;39.70;;;;;;5117953;28;20496;-80
2022/07/31 06:31:28;;;;;;;1.60;1.43;;;28.50;39.70;;;;;;5120137;28;20434;-79
2022/07/31 06:33:55;;;;;;;2.13;1.50;;;28.50;39.50;;;;;;5120292;28;21015;-80
2022/07/31 06:36:23;;;;;;;1.63;1.63;;;28.50;39.60;;;;;;5118555;28;20497;-80
2022/07/31 06:38:51;;;;;;;1.57;1.53;;;28.50;39.70;;;;;;5118571;28;20440;-79
2022/07/31 06:44:00;;;;;;;1.70;1.57;;;28.50;39.60;;;;;;5117504;28;20427;-80
2022/07/31 06:46:29;;;;;;;1.67;1.67;;;28.60;39.70;;;;;;5117408;28;20421;-79
2022/07/31 06:48:57;;;;;;;1.80;1.70;;;28.60;39.70;;;;;;5117584;27;20424;-79
2022/07/31 06:51:25;;;;;;;1.80;1.70;;;28.60;39.50;;;;;;5117902;28;20516;-78
2022/07/31 06:53:58;;;;;;;1.70;1.60;;;28.60;39.50;;;;;;5117035;28;20464;-79
2022/07/31 06:56:26;;;;;;;1.53;1.43;;;28.60;39.40;;;;;;5116250;28;20414;-79
2022/07/31 06:58:54;;;;;;;1.83;1.73;;;28.70;39.50;;;;;;5117185;28;20440;-79
2022/07/31 07:01:22;;;;;;;1.47;1.47;;;28.70;39.40;;;;;;5117113;28;20818;-79
2022/07/31 07:03:51;;;;;;;1.37;1.37;;;28.70;39.30;;;;;;5117806;28;20498;-79
2022/07/31 07:06:19;;;;;;;1.60;1.50;;;28.80;39.40;;;;;;5117372;28;20450;-79
2022/07/31 07:08:47;;;;;;;1.70;1.60;;;28.80;39.40;;;;;;5117874;28;20530;-79
2022/07/31 07:11:15;;;;;;;1.53;1.47;;;28.80;39.20;;;;;;5117535;28;20533;-79
2022/07/31 07:13:43;;;;;;;1.77;1.67;;;28.90;39.30;;;;;;5117016;28;20843;-79
2022/07/31 07:16:13;;;;;;;1.50;1.50;;;28.90;39.30;;;;;;5119115;28;20489;-79
2022/07/31 07:18:41;;;;;;;2.40;1.83;;;28.90;39.20;;;;;;5121903;28;20513;-79
2022/07/31 07:21:11;;;;;;;1.40;1.30;;;28.90;39.30;;;;;;5122338;28;20410;-80
2022/07/31 07:23:38;;;;;;;1.40;1.40;;;29.00;39.30;;;;;;5120612;28;20451;-79
2022/07/31 07:26:06;;;;;;;1.40;1.30;;;29.00;39.30;;;;;;5121588;28;20501;-79
2022/07/31 07:28:34;;;;;;;1.37;1.27;;;29.00;39.20;;;;;;5121428;27;20436;-79
2022/07/31 07:31:02;;;;;;;1.80;1.70;;;29.10;39.30;;;;;;5121760;27;20529;-79
2022/07/31 07:33:30;;;;;;;2.00;1.90;;;29.00;39.20;;;;;;5121539;28;20434;-80
2022/07/31 07:36:09;;;;;;;1.57;1.53;;;29.00;39.30;;;;;;5120551;28;20462;-79
2022/07/31 07:38:53;;;;;;;2.30;1.60;;;29.10;39.20;;;;;;5121629;28;20432;-79
2022/07/31 07:41:22;;;;;;;1.50;1.50;;;29.20;39.20;;;;;;5121708;28;20427;-80
2022/07/31 07:43:50;;;;;;;2.40;1.50;;;29.20;39.00;;;;;;5121377;28;20455;-79
2022/07/31 07:46:19;;;;;;;1.33;1.33;;;29.30;39.00;;;;;;5121061;28;20487;-80
2022/07/31 07:48:47;;;;;;;1.70;1.60;;;29.30;38.90;;;;;;5121081;28;20431;-79
2022/07/31 07:51:15;;;;;;;2.87;2.00;;;29.40;38.80;;;;;;5121235;28;20479;-79
2022/07/31 07:53:43;;;;;;;1.60;1.50;;;29.50;38.90;;;;;;5121223;27;20470;-79
2022/07/31 07:56:12;;;;;;;2.60;1.70;;;29.50;38.80;;;;;;5120072;28;20507;-80
2022/07/31 07:58:40;;;;;;;1.60;1.50;;;29.50;38.80;;;;;;5121206;28;20475;-79
2022/07/31 08:01:08;;;;;;;1.90;1.80;;;29.60;38.70;;;;;;5120580;28;20440;-80
2022/07/31 08:03:36;;;;;;;1.20;1.20;;;29.60;38.60;;;;;;5120941;28;20459;-80
2022/07/31 08:06:19;;;;;;;1.83;1.70;;;29.70;38.60;;;;;;5119592;28;20432;-80
2022/07/31 08:08:47;;;;;;;1.77;1.67;;;29.70;38.60;;;;;;5121004;28;20526;-79
2022/07/31 08:11:16;;;;;;;1.80;1.70;;;29.70;38.60;;;;;;5120627;28;20471;-78
2022/07/31 08:13:45;;;;;;;2.00;1.90;;;29.70;38.60;;;;;;5120338;28;20455;-79
2022/07/31 08:16:18;;;;;;;2.03;1.80;;;29.70;38.60;;;;;;5120024;28;20856;-78
2022/07/31 08:18:45;;;;;;;1.83;1.73;;;29.70;38.70;;;;;;5120286;28;20417;-78
2022/07/31 08:21:13;;;;;;;1.47;1.37;;;29.70;38.70;;;;;;5120017;28;20446;-79
2022/07/31 08:23:41;;;;;;;1.77;1.67;;;29.80;38.60;;;;;;5119832;28;20486;-79
2022/07/31 08:26:09;;;;;;;2.23;1.47;;;29.80;38.60;;;;;;5119316;28;20470;-79
2022/07/31 08:28:39;;;;;;;1.73;1.63;;;29.80;38.60;;;;;;5118503;28;20428;-80
2022/07/31 08:31:08;;;;;;;1.83;1.73;;;29.80;38.60;;;;;;5118580;28;20446;-80
2022/07/31 08:33:36;;;;;;;1.47;1.47;;;29.80;38.60;;;;;;5119665;27;20470;-80
2022/07/31 08:36:07;;;;;;;1.50;1.50;;;29.90;38.70;;;;;;5118807;28;20446;-80
2022/07/31 08:38:35;;;;;;;1.63;1.60;;;29.80;38.60;;;;;;5119723;28;20443;-80
2022/07/31 08:41:04;;;;;;;1.90;1.80;;;29.80;38.60;;;;;;5120002;28;20813;-80
2022/07/31 08:43:32;;;;;;;1.70;1.60;;;29.90;38.70;;;;;;5120086;28;20474;-80
2022/07/31 08:46:21;;;;;;;1.50;1.50;;;29.90;38.60;;;;;;5118800;28;20403;-79
2022/07/31 08:48:52;;;;;;;1.70;1.60;;;29.90;38.60;;;;;;5119683;28;20514;-80
2022/07/31 08:51:20;;;;;;;1.60;1.50;;;30.00;38.60;;;;;;5118712;28;20463;-81
2022/07/31 08:53:48;;;;;;;1.60;1.50;;;30.00;38.50;;;;;;5119395;28;20527;-81
2022/07/31 08:56:16;;;;;;;1.90;1.70;;;30.10;38.50;;;;;;5119751;28;20450;-81
2022/07/31 08:58:44;;;;;;;1.67;1.57;;;30.00;38.40;;;;;;5118051;28;20458;-78
2022/07/31 09:01:12;;;;;;;1.60;1.50;;;30.00;38.60;;;;;;5116009;28;20450;-78
2022/07/31 09:03:41;;;;;;;1.60;1.50;;;30.00;38.50;;;;;;5116581;28;20460;-79
2022/07/31 09:06:09;;;;;;;1.70;1.70;;;30.10;38.40;;;;;;5115145;28;20509;-78
2022/07/31 09:08:38;;;;;;;1.43;1.43;;;30.10;38.50;;;;;;5116337;28;20450;-79
2022/07/31 09:11:07;;;;;;;1.50;1.40;;;30.20;38.50;;;;;;5115606;28;20981;-79
2022/07/31 09:13:35;;;;;;;1.60;1.50;;;30.20;38.40;;;;;;5116324;28;20527;-79
2022/07/31 09:16:03;;;;;;;1.27;1.27;;;30.30;38.50;;;;;;5117531;27;20463;-79
2022/07/31 09:18:30;;;;;;;1.80;1.70;;;30.40;38.40;;;;;;5118840;27;20442;-79
2022/07/31 09:21:01;;;;;;;1.77;1.77;;;30.50;38.30;;;;;;5118762;28;20432;-79
2022/07/31 09:23:29;;;;;;;1.63;1.50;;;30.60;38.20;;;;;;5118150;28;20830;-79
2022/07/31 09:25:58;;;;;;;1.90;1.60;;;30.70;38.20;;;;;;5117872;28;20440;-79
2022/07/31 09:28:33;;;;;;;1.60;1.60;;;30.80;38.00;;;;;;5118207;28;20463;-80
2022/07/31 09:31:01;;;;;;;2.30;1.73;;;30.90;38.00;;;;;;5118201;28;20463;-79
2022/07/31 09:33:30;;;;;;;1.50;1.50;;;31.00;37.80;;;;;;5118786;28;20464;-79
2022/07/31 09:35:59;;;;;;;1.97;1.87;;;31.10;37.70;;;;;;5116796;28;20535;-80
2022/07/31 09:38:32;;;;;;;2.83;2.03;;;31.20;37.70;;;;;;5117656;28;20511;-80
2022/07/31 09:41:12;;;;;;;2.73;1.60;;;31.30;37.60;;;;;;5117396;28;20507;-79
2022/07/31 09:44:01;;;;;;;1.30;1.20;;;31.30;37.50;;;;;;5118053;28;20451;-79
2022/07/31 09:46:39;;;;;;;2.30;1.67;;;31.40;37.50;;;;;;5116954;28;20447;-79
2022/07/31 09:49:07;;;;;;;1.80;1.67;;;31.40;37.40;;;;;;5117214;28;20448;-80
2022/07/31 09:51:39;;;;;;;1.70;1.60;;;31.40;37.50;;;;;;5117387;28;20475;-79
2022/07/31 09:54:08;;;;;;;1.83;1.73;;;31.50;37.40;;;;;;5117887;27;20666;-80
2022/07/31 09:56:36;;;;;;;1.90;1.80;;;31.50;37.40;;;;;;5116135;28;20515;-80
2022/07/31 09:59:05;;;;;;;2.20;2.10;;;31.50;37.40;;;;;;5119482;28;20448;-80
2022/07/31 10:01:35;;;;;;;1.93;1.83;;;31.50;37.40;;;;;;5117512;28;20474;-80
2022/07/31 10:04:03;;;;;;;1.87;1.77;;;31.50;37.50;;;;;;5117003;28;20522;-79
2022/07/31 10:06:31;;;;;;;1.87;1.77;;;31.60;37.60;;;;;;5116938;28;20535;-79
2022/07/31 10:09:02;;;;;;;2.60;1.70;;;31.60;37.50;;;;;;5118215;28;20534;-79
2022/07/31 10:11:30;;;;;;;1.80;1.70;;;31.70;37.40;;;;;;5117567;28;20470;-80
2022/07/31 10:14:00;;;;;;;2.47;1.83;;;31.80;37.30;;;;;;5117017;27;20446;-79
2022/07/31 10:16:31;;;;;;;1.83;1.80;;;31.90;37.20;;;;;;5116907;28;20523;-79
2022/07/31 10:19:00;;;;;;;1.83;1.73;;;32.00;37.10;;;;;;5117122;28;20433;-79
2022/07/31 10:21:29;;;;;;;1.90;1.80;;;32.10;37.00;;;;;;5116866;28;20444;-79
2022/07/31 10:23:57;;;;;;;2.00;1.90;;;32.20;37.10;;;;;;5117332;28;20464;-79
2022/07/31 10:26:26;;;;;;;2.00;1.90;;;32.40;36.90;;;;;;5116856;28;20458;-79
2022/07/31 10:29:15;;;;;;;1.90;1.70;;;32.60;36.70;;;;;;5117514;28;20423;-79
2022/07/31 10:31:43;;;;;;;1.73;1.70;;;32.80;36.30;;;;;;5116690;28;20478;-79
2022/07/31 10:34:12;;;;;;;2.03;1.87;;;32.90;36.20;;;;;;5117123;28;20498;-80
2022/07/31 10:36:40;;;;;;;2.13;1.80;;;32.90;36.10;;;;;;5116373;28;20451;-80
2022/07/31 10:39:09;;;;;;;1.93;1.83;;;33.00;36.10;;;;;;5122172;28;20464;-79
2022/07/31 10:41:42;;;;;;;1.80;1.50;;;33.00;36.10;;;;;;5117967;28;20511;-80
2022/07/31 10:44:11;;;;;;;1.83;1.73;;;33.00;36.00;;;;;;5116944;28;20451;-80
2022/07/31 10:46:39;;;;;;;1.80;1.80;;;33.10;36.00;;;;;;5116512;28;20431;-80
2022/07/31 10:49:07;;;;;;;1.80;1.70;;;33.20;36.00;;;;;;5116845;28;20439;-80
2022/07/31 10:51:46;;;;;;;2.17;2.07;;;33.20;35.90;;;;;;5117394;28;20459;-80
2022/07/31 10:54:14;;;;;;;2.03;1.83;;;33.30;35.90;;;;;;5117964;28;20459;-80
2022/07/31 10:56:46;;;;;;;1.67;1.57;;;33.40;35.90;;;;;;5116810;28;20444;-80
2022/07/31 10:59:14;;;;;;;2.17;1.60;;;33.40;35.90;;;;;;5117341;28;20442;-79
2022/07/31 11:01:46;;;;;;;1.90;1.80;;;33.40;35.80;;;;;;5117214;28;20463;-81
2022/07/31 11:04:26;;;;;;;1.70;1.60;;;33.40;35.80;;;;;;5117186;28;20482;-80
2022/07/31 11:06:53;;;;;;;1.93;1.83;;;33.30;35.90;;;;;;5116053;28;20454;-82
2022/07/31 11:09:22;;;;;;;1.90;1.80;;;33.20;36.00;;;;;;5116765;28;20527;-79
2022/07/31 11:11:52;;;;;;;1.80;1.70;;;33.10;36.00;;;;;;5116799;28;20474;-79
2022/07/31 11:14:31;;;;;;;1.70;1.60;;;33.00;36.10;;;;;;5116854;28;20456;-79
2022/07/31 11:16:58;;;;;;;1.60;1.60;;;32.90;36.30;;;;;;5116518;28;20463;-79
2022/07/31 11:19:37;;;;;;;1.80;1.70;;;32.80;36.40;;;;;;5117264;28;20440;-79
2022/07/31 11:22:11;;;;;;;1.60;1.50;;;32.80;36.60;;;;;;5117929;28;20464;-79
2022/07/31 11:24:59;;;;;;;1.70;1.70;;;32.70;37.20;;;;;;5116800;28;20456;-77
2022/07/31 11:27:32;;;;;;;1.80;1.70;;;32.70;37.40;;;;;;5119283;28;20443;-79
2022/07/31 11:30:07;;;;;;;1.93;1.83;;;32.60;36.70;;;;;;5118092;28;20446;-80
2022/07/31 11:32:40;;;;;;;1.77;1.57;;;32.60;36.90;;;;;;5116576;28;20472;-80
2022/07/31 11:35:08;;;;;;;2.40;1.60;;;32.60;36.90;;;;;;5115588;28;20491;-80
2022/07/31 11:37:36;;;;;;;1.83;1.77;;;32.50;37.00;;;;;;5116195;28;20527;-79
2022/07/31 11:40:25;;;;;;;2.13;2.03;;;32.40;37.10;;;;;;5119851;28;20432;-80
2022/07/31 11:42:57;;;;;;;1.70;1.60;;;32.40;37.10;;;;;;5120196;28;20439;-79
2022/07/31 11:45:48;;;;;;;2.23;1.70;;;32.40;37.20;;;;;;5118756;28;20436;-79
2022/07/31 11:48:16;;;;;;;1.50;1.50;;;32.30;37.20;;;;;;5116147;28;20431;-80
2022/07/31 11:50:46;;;;;;;1.77;1.70;;;32.20;37.20;;;;;;5116335;28;20431;-80
2022/07/31 11:53:13;;;;;;;1.90;1.80;;;32.20;37.40;;;;;;5116015;28;20546;-79
2022/07/31 11:55:48;;;;;;;1.93;1.83;;;32.20;37.40;;;;;;5116390;28;20432;-80
2022/07/31 11:58:18;;;;;;;1.87;1.77;;;32.20;37.50;;;;;;5116861;28;20519;-80
2022/07/31 12:00:47;;;;;;;3.33;2.00;;;32.10;37.60;;;;;;5116667;28;20538;-79
2022/07/31 12:03:16;;;;;;;2.10;1.90;;;32.10;37.60;;;;;;5118584;28;20443;-80
2022/07/31 12:05:44;;;;;;;1.60;1.50;;;32.20;37.70;;;;;;5119355;28;20431;-79
2022/07/31 12:08:12;;;;;;;1.70;1.70;;;32.20;37.60;;;;;;5121010;28;20522;-79
2022/07/31 12:10:40;;;;;;;2.03;1.90;;;32.30;37.50;;;;;;5120754;28;20519;-80
2022/07/31 12:13:12;;;;;;;2.10;2.00;;;32.20;37.50;;;;;;5120734;28;20472;-79
2022/07/31 12:15:56;;;;;;;2.03;1.93;;;32.20;37.60;;;;;;5121142;28;20443;-80
2022/07/31 12:18:24;;;;;;;1.47;1.47;;;32.20;37.60;;;;;;5121521;28;20462;-79
2022/07/31 12:20:54;;;;;;;1.80;1.70;;;32.20;37.70;;;;;;5120351;28;20494;-81
2022/07/31 12:23:22;;;;;;;1.80;1.80;;;32.20;37.80;;;;;;5119863;28;20450;-81
2022/07/31 12:26:07;;;;;;;1.70;1.60;;;32.20;37.80;;;;;;5119562;28;20900;-81
2022/07/31 12:28:35;;;;;;;1.77;1.67;;;32.30;37.80;;;;;;5120034;28;20513;-81
2022/07/31 12:31:04;;;;;;;1.93;1.83;;;32.40;37.50;;;;;;5119436;28;20442;-81
2022/07/31 12:33:40;;;;;;;1.30;1.30;;;32.40;37.40;;;;;;5119656;28;20471;-79
2022/07/31 12:36:15;;;;;;;1.70;1.60;;;32.40;37.60;;;;;;5118468;28;20547;-78
2022/07/31 12:38:43;;;;;;;2.30;1.80;;;32.30;37.60;;;;;;5119753;28;20511;-79
2022/07/31 12:41:15;;;;;;;2.90;2.00;;;32.20;37.80;;;;;;5119630;28;20509;-79
2022/07/31 12:43:43;;;;;;;1.70;1.70;;;32.10;38.00;;;;;;5119006;28;20448;-80
2022/07/31 12:46:21;;;;;;;1.50;1.50;;;32.00;38.00;;;;;;5118778;28;20435;-79
2022/07/31 12:48:49;;;;;;;1.53;1.53;;;32.00;38.20;;;;;;5119560;28;20471;-79
2022/07/31 12:51:18;;;;;;;1.90;1.80;;;31.90;38.20;;;;;;5119777;28;20465;-79
2022/07/31 12:54:06;;;;;;;1.63;1.63;;;31.90;38.30;;;;;;5121395;28;20486;-80
2022/07/31 12:56:34;;;;;;;1.70;1.60;;;31.80;38.40;;;;;;5119315;28;20450;-80
2022/07/31 12:59:02;;;;;;;1.73;1.60;;;31.80;38.40;;;;;;5119806;28;20499;-81
2022/07/31 13:01:31;;;;;;;1.80;1.70;;;31.80;38.50;;;;;;5119290;28;20523;-80
2022/07/31 13:03:59;;;;;;;1.60;1.50;;;31.70;38.60;;;;;;5119074;28;20460;-80